sensor_id;sensor_type;location;lat;lon;timestamp;temperature;humidity
49222;DHT22;35047;37.588;-122.048;2022-11-12T00:01:59;16.40;86.20
49222;DHT22;35047;37.588;-122.048;2022-11-12T00:04:26;16.40;86.50
49222;DHT22;35047;37.588;-122.048;2022-11-12T00:06:52;16.40;86.80
49222;DHT22;35047;37.588;-122.048;2022-11-12T00:09:18;16.30;87.00
49222;DHT22;35047;37.588;-122.048;2022-11-12T00:11:45;16.30;87.10
49222;DHT22;35047;37.588;-122.048;2022-11-12T00:14:11;16.30;87.50
49222;DHT22;35047;37.588;-122.048;2022-11-12T00:16:39;16.20;88.00
49222;DHT22;35047;37.588;-122.048;2022-11-12T00:19:05;16.20;88.60
49222;DHT22;35047;37.588;-122.048;2022-11-12T00:21:33;16.10;89.10
49222;DHT22;35047;37.588;-122.048;2022-11-12T00:23:59;16.10;89.70
49222;DHT22;35047;37.588;-122.048;2022-11-12T00:26:27;16.00;90.00
49222;DHT22;35047;37.588;-122.048;2022-11-12T00:28:54;16.00;90.30
49222;DHT22;35047;37.588;-122.048;2022-11-12T00:31:20;16.00;90.40
49222;DHT22;35047;37.588;-122.048;2022-11-12T00:33:48;15.90;90.50
49222;DHT22;35047;37.588;-122.048;2022-11-12T00:36:14;15.90;90.70
49222;DHT22;35047;37.588;-122.048;2022-11-12T00:38:41;15.80;90.70
49222;DHT22;35047;37.588;-122.048;2022-11-12T00:41:08;15.80;90.80
49222;DHT22;35047;37.588;-122.048;2022-11-12T00:43:34;15.70;90.80
49222;DHT22;35047;37.588;-122.048;2022-11-12T00:46:04;15.70;90.80
49222;DHT22;35047;37.588;-122.048;2022-11-12T00:48:31;15.70;90.90
49222;DHT22;35047;37.588;-122.048;2022-11-12T00:51:05;15.60;91.00
49222;DHT22;35047;37.588;-122.048;2022-11-12T00:53:31;15.50;91.00
49222;DHT22;35047;37.588;-122.048;2022-11-12T00:56:05;15.50;91.00
49222;DHT22;35047;37.588;-122.048;2022-11-12T00:58:33;15.40;90.90
49222;DHT22;35047;37.588;-122.048;2022-11-12T01:01:11;15.40;91.00
49222;DHT22;35047;37.588;-122.048;2022-11-12T01:03:39;15.30;91.00
49222;DHT22;35047;37.588;-122.048;2022-11-12T01:06:10;15.30;91.10
49222;DHT22;35047;37.588;-122.048;2022-11-12T01:08:38;15.20;91.20
49222;DHT22;35047;37.588;-122.048;2022-11-12T01:11:21;15.10;91.40
49222;DHT22;35047;37.588;-122.048;2022-11-12T01:13:54;15.10;91.50
49222;DHT22;35047;37.588;-122.048;2022-11-12T01:16:22;15.00;91.70
49222;DHT22;35047;37.588;-122.048;2022-11-12T01:18:54;14.90;91.80
49222;DHT22;35047;37.588;-122.048;2022-11-12T01:21:22;14.90;92.00
49222;DHT22;35047;37.588;-122.048;2022-11-12T01:23:49;14.80;92.20
49222;DHT22;35047;37.588;-122.048;2022-11-12T01:26:19;14.70;92.20
49222;DHT22;35047;37.588;-122.048;2022-11-12T01:28:45;14.60;92.40
49222;DHT22;35047;37.588;-122.048;2022-11-12T01:33:47;14.50;92.70
49222;DHT22;35047;37.588;-122.048;2022-11-12T01:36:16;14.40;92.80
49222;DHT22;35047;37.588;-122.048;2022-11-12T01:38:45;14.30;92.90
49222;DHT22;35047;37.588;-122.048;2022-11-12T01:41:15;14.30;93.10
49222;DHT22;35047;37.588;-122.048;2022-11-12T01:43:43;14.10;93.10
49222;DHT22;35047;37.588;-122.048;2022-11-12T01:49:06;14.00;93.50
49222;DHT22;35047;37.588;-122.048;2022-11-12T01:51:42;13.90;93.70
49222;DHT22;35047;37.588;-122.048;2022-11-12T01:54:12;13.80;93.90
49222;DHT22;35047;37.588;-122.048;2022-11-12T01:56:40;13.70;94.10
49222;DHT22;35047;37.588;-122.048;2022-11-12T01:59:12;13.60;94.30
49222;DHT22;35047;37.588;-122.048;2022-11-12T02:01:41;13.50;94.50
49222;DHT22;35047;37.588;-122.048;2022-11-12T02:04:07;13.40;94.70
49222;DHT22;35047;37.588;-122.048;2022-11-12T02:06:35;13.40;94.80
49222;DHT22;35047;37.588;-122.048;2022-11-12T02:09:03;13.30;95.00
49222;DHT22;35047;37.588;-122.048;2022-11-12T02:11:31;13.20;95.30
49222;DHT22;35047;37.588;-122.048;2022-11-12T02:13:57;13.20;95.50
49222;DHT22;35047;37.588;-122.048;2022-11-12T02:16:41;13.10;95.60
49222;DHT22;35047;37.588;-122.048;2022-11-12T02:19:11;13.00;95.80
49222;DHT22;35047;37.588;-122.048;2022-11-12T02:21:39;13.00;96.00
49222;DHT22;35047;37.588;-122.048;2022-11-12T02:26:48;12.80;96.10
49222;DHT22;35047;37.588;-122.048;2022-11-12T02:29:16;12.80;96.20
49222;DHT22;35047;37.588;-122.048;2022-11-12T02:31:43;12.70;96.30
49222;DHT22;35047;37.588;-122.048;2022-11-12T02:34:09;12.70;96.50
49222;DHT22;35047;37.588;-122.048;2022-11-12T02:36:36;12.60;96.50
49222;DHT22;35047;37.588;-122.048;2022-11-12T02:39:03;12.50;96.80
49222;DHT22;35047;37.588;-122.048;2022-11-12T02:41:30;12.50;96.70
49222;DHT22;35047;37.588;-122.048;2022-11-12T02:43:57;12.40;96.80
49222;DHT22;35047;37.588;-122.048;2022-11-12T02:46:24;12.30;96.90
49222;DHT22;35047;37.588;-122.048;2022-11-12T02:48:50;12.20;97.00
49222;DHT22;35047;37.588;-122.048;2022-11-12T02:51:17;12.20;97.20
49222;DHT22;35047;37.588;-122.048;2022-11-12T02:53:44;12.10;97.30
49222;DHT22;35047;37.588;-122.048;2022-11-12T02:56:10;12.00;97.40
49222;DHT22;35047;37.588;-122.048;2022-11-12T02:58:37;12.00;97.50
49222;DHT22;35047;37.588;-122.048;2022-11-12T03:01:04;11.90;97.60
49222;DHT22;35047;37.588;-122.048;2022-11-12T03:03:31;11.90;97.70
49222;DHT22;35047;37.588;-122.048;2022-11-12T03:06:00;11.80;97.90
49222;DHT22;35047;37.588;-122.048;2022-11-12T03:08:27;11.70;98.00
49222;DHT22;35047;37.588;-122.048;2022-11-12T03:10:54;11.70;98.10
49222;DHT22;35047;37.588;-122.048;2022-11-12T03:13:20;11.70;98.20
49222;DHT22;35047;37.588;-122.048;2022-11-12T03:15:47;11.60;98.30
49222;DHT22;35047;37.588;-122.048;2022-11-12T03:18:14;11.50;98.40
49222;DHT22;35047;37.588;-122.048;2022-11-12T03:20:42;11.50;98.50
49222;DHT22;35047;37.588;-122.048;2022-11-12T03:23:09;11.40;98.60
49222;DHT22;35047;37.588;-122.048;2022-11-12T03:25:36;11.40;98.60
49222;DHT22;35047;37.588;-122.048;2022-11-12T03:28:05;11.30;98.70
49222;DHT22;35047;37.588;-122.048;2022-11-12T03:30:34;11.30;98.80
49222;DHT22;35047;37.588;-122.048;2022-11-12T03:33:02;11.20;98.90
49222;DHT22;35047;37.588;-122.048;2022-11-12T03:35:30;11.20;99.00
49222;DHT22;35047;37.588;-122.048;2022-11-12T03:37:59;11.10;99.10
49222;DHT22;35047;37.588;-122.048;2022-11-12T03:40:26;11.10;99.20
49222;DHT22;35047;37.588;-122.048;2022-11-12T03:42:53;11.00;99.30
49222;DHT22;35047;37.588;-122.048;2022-11-12T03:45:22;11.00;99.40
49222;DHT22;35047;37.588;-122.048;2022-11-12T03:47:52;10.90;99.40
49222;DHT22;35047;37.588;-122.048;2022-11-12T03:50:21;10.90;99.60
49222;DHT22;35047;37.588;-122.048;2022-11-12T03:52:51;10.80;99.60
49222;DHT22;35047;37.588;-122.048;2022-11-12T03:55:19;10.80;99.70
49222;DHT22;35047;37.588;-122.048;2022-11-12T03:57:50;10.70;99.80
49222;DHT22;35047;37.588;-122.048;2022-11-12T04:00:17;10.70;99.90
49222;DHT22;35047;37.588;-122.048;2022-11-12T04:02:44;10.60;99.90
49222;DHT22;35047;37.588;-122.048;2022-11-12T04:05:11;10.50;99.90
49222;DHT22;35047;37.588;-122.048;2022-11-12T04:08:00;10.50;99.90
49222;DHT22;35047;37.588;-122.048;2022-11-12T04:10:45;10.40;99.90
49222;DHT22;35047;37.588;-122.048;2022-11-12T04:13:12;10.40;99.90
49222;DHT22;35047;37.588;-122.048;2022-11-12T04:16:01;10.40;99.90
49222;DHT22;35047;37.588;-122.048;2022-11-12T04:18:48;10.30;99.90
49222;DHT22;35047;37.588;-122.048;2022-11-12T04:21:37;10.20;99.90
49222;DHT22;35047;37.588;-122.048;2022-11-12T04:29:42;10.00;99.90
49222;DHT22;35047;37.588;-122.048;2022-11-12T04:32:27;10.00;99.90
49222;DHT22;35047;37.588;-122.048;2022-11-12T04:34:55;10.00;99.90
49222;DHT22;35047;37.588;-122.048;2022-11-12T04:37:25;9.90;99.90
49222;DHT22;35047;37.588;-122.048;2022-11-12T04:39:54;9.90;99.90
49222;DHT22;35047;37.588;-122.048;2022-11-12T04:42:41;9.90;99.90
49222;DHT22;35047;37.588;-122.048;2022-11-12T04:45:26;9.80;99.90
49222;DHT22;35047;37.588;-122.048;2022-11-12T04:47:53;9.80;99.90
49222;DHT22;35047;37.588;-122.048;2022-11-12T04:50:19;9.80;99.90
49222;DHT22;35047;37.588;-122.048;2022-11-12T04:52:46;9.70;99.90
49222;DHT22;35047;37.588;-122.048;2022-11-12T04:55:12;9.70;99.90
49222;DHT22;35047;37.588;-122.048;2022-11-12T04:57:40;9.60;99.90
49222;DHT22;35047;37.588;-122.048;2022-11-12T05:00:07;9.60;99.90
49222;DHT22;35047;37.588;-122.048;2022-11-12T05:02:34;9.60;99.90
49222;DHT22;35047;37.588;-122.048;2022-11-12T05:05:01;9.50;99.90
49222;DHT22;35047;37.588;-122.048;2022-11-12T05:07:31;9.50;99.90
49222;DHT22;35047;37.588;-122.048;2022-11-12T05:09:58;9.50;99.90
49222;DHT22;35047;37.588;-122.048;2022-11-12T05:12:25;9.40;99.90
49222;DHT22;35047;37.588;-122.048;2022-11-12T05:14:52;9.40;99.90
49222;DHT22;35047;37.588;-122.048;2022-11-12T05:17:20;9.40;99.90
49222;DHT22;35047;37.588;-122.048;2022-11-12T05:19:47;9.30;99.90
49222;DHT22;35047;37.588;-122.048;2022-11-12T05:22:13;9.30;99.90
49222;DHT22;35047;37.588;-122.048;2022-11-12T05:24:41;9.30;99.90
49222;DHT22;35047;37.588;-122.048;2022-11-12T05:27:12;9.20;99.90
49222;DHT22;35047;37.588;-122.048;2022-11-12T05:29:39;9.20;99.90
49222;DHT22;35047;37.588;-122.048;2022-11-12T05:32:07;9.20;99.90
49222;DHT22;35047;37.588;-122.048;2022-11-12T05:34:34;9.20;99.90
49222;DHT22;35047;37.588;-122.048;2022-11-12T05:37:02;9.10;99.90
49222;DHT22;35047;37.588;-122.048;2022-11-12T05:39:29;9.10;99.90
49222;DHT22;35047;37.588;-122.048;2022-11-12T05:41:56;9.10;99.90
49222;DHT22;35047;37.588;-122.048;2022-11-12T05:44:23;9.10;99.90
49222;DHT22;35047;37.588;-122.048;2022-11-12T05:46:50;9.00;99.90
49222;DHT22;35047;37.588;-122.048;2022-11-12T05:49:18;9.00;99.90
49222;DHT22;35047;37.588;-122.048;2022-11-12T05:51:44;9.00;99.90
49222;DHT22;35047;37.588;-122.048;2022-11-12T05:54:11;8.90;99.90
49222;DHT22;35047;37.588;-122.048;2022-11-12T05:56:38;8.90;99.90
49222;DHT22;35047;37.588;-122.048;2022-11-12T05:59:08;8.90;99.90
49222;DHT22;35047;37.588;-122.048;2022-11-12T06:01:36;8.90;99.90
49222;DHT22;35047;37.588;-122.048;2022-11-12T06:04:15;8.80;99.90
49222;DHT22;35047;37.588;-122.048;2022-11-12T06:06:43;8.80;99.90
49222;DHT22;35047;37.588;-122.048;2022-11-12T06:09:09;8.80;99.90
49222;DHT22;35047;37.588;-122.048;2022-11-12T06:11:36;8.70;99.90
49222;DHT22;35047;37.588;-122.048;2022-11-12T06:14:04;8.70;99.90
49222;DHT22;35047;37.588;-122.048;2022-11-12T06:16:31;8.70;99.90
49222;DHT22;35047;37.588;-122.048;2022-11-12T06:18:58;8.60;99.90
49222;DHT22;35047;37.588;-122.048;2022-11-12T06:21:25;8.60;99.90
49222;DHT22;35047;37.588;-122.048;2022-11-12T06:23:55;8.60;99.90
49222;DHT22;35047;37.588;-122.048;2022-11-12T06:26:24;8.60;99.90
49222;DHT22;35047;37.588;-122.048;2022-11-12T06:28:52;8.60;99.90
49222;DHT22;35047;37.588;-122.048;2022-11-12T06:31:19;8.50;99.90
49222;DHT22;35047;37.588;-122.048;2022-11-12T06:33:46;8.50;99.90
49222;DHT22;35047;37.588;-122.048;2022-11-12T06:36:15;8.50;99.90
49222;DHT22;35047;37.588;-122.048;2022-11-12T06:38:43;8.40;99.90
49222;DHT22;35047;37.588;-122.048;2022-11-12T06:41:11;8.40;99.90
49222;DHT22;35047;37.588;-122.048;2022-11-12T06:43:38;8.30;99.90
49222;DHT22;35047;37.588;-122.048;2022-11-12T06:46:14;8.30;99.90
49222;DHT22;35047;37.588;-122.048;2022-11-12T06:48:41;8.30;99.90
49222;DHT22;35047;37.588;-122.048;2022-11-12T06:51:17;8.30;99.90
49222;DHT22;35047;37.588;-122.048;2022-11-12T06:53:45;8.30;99.90
49222;DHT22;35047;37.588;-122.048;2022-11-12T06:56:12;8.20;99.90
49222;DHT22;35047;37.588;-122.048;2022-11-12T06:58:39;8.20;99.90
49222;DHT22;35047;37.588;-122.048;2022-11-12T07:01:11;8.20;99.90
49222;DHT22;35047;37.588;-122.048;2022-11-12T07:03:39;8.20;99.90
49222;DHT22;35047;37.588;-122.048;2022-11-12T07:06:09;8.10;99.90
49222;DHT22;35047;37.588;-122.048;2022-11-12T07:08:36;8.10;99.90
49222;DHT22;35047;37.588;-122.048;2022-11-12T07:11:03;8.10;99.90
49222;DHT22;35047;37.588;-122.048;2022-11-12T07:13:31;8.00;99.90
49222;DHT22;35047;37.588;-122.048;2022-11-12T07:15:58;8.00;99.90
49222;DHT22;35047;37.588;-122.048;2022-11-12T07:18:25;8.00;99.90
49222;DHT22;35047;37.588;-122.048;2022-11-12T07:21:00;8.00;99.90
49222;DHT22;35047;37.588;-122.048;2022-11-12T07:23:30;8.00;99.90
49222;DHT22;35047;37.588;-122.048;2022-11-12T07:26:04;7.90;99.90
49222;DHT22;35047;37.588;-122.048;2022-11-12T07:28:32;7.90;99.90
49222;DHT22;35047;37.588;-122.048;2022-11-12T07:31:00;7.90;99.90
49222;DHT22;35047;37.588;-122.048;2022-11-12T07:33:29;7.90;99.90
49222;DHT22;35047;37.588;-122.048;2022-11-12T07:35:56;7.80;99.90
49222;DHT22;35047;37.588;-122.048;2022-11-12T07:38:23;7.80;99.90
49222;DHT22;35047;37.588;-122.048;2022-11-12T07:40:51;7.80;99.90
49222;DHT22;35047;37.588;-122.048;2022-11-12T07:43:17;7.80;99.90
49222;DHT22;35047;37.588;-122.048;2022-11-12T07:45:44;7.80;99.90
49222;DHT22;35047;37.588;-122.048;2022-11-12T07:48:11;7.70;99.90
49222;DHT22;35047;37.588;-122.048;2022-11-12T07:50:37;7.70;99.90
49222;DHT22;35047;37.588;-122.048;2022-11-12T07:53:05;7.70;99.90
49222;DHT22;35047;37.588;-122.048;2022-11-12T07:55:32;7.70;99.90
49222;DHT22;35047;37.588;-122.048;2022-11-12T07:57:59;7.70;99.90
49222;DHT22;35047;37.588;-122.048;2022-11-12T08:00:26;7.70;99.90
49222;DHT22;35047;37.588;-122.048;2022-11-12T08:02:53;7.60;99.90
49222;DHT22;35047;37.588;-122.048;2022-11-12T08:05:19;7.60;99.90
49222;DHT22;35047;37.588;-122.048;2022-11-12T08:07:46;7.60;99.90
49222;DHT22;35047;37.588;-122.048;2022-11-12T08:10:12;7.60;99.90
49222;DHT22;35047;37.588;-122.048;2022-11-12T08:12:39;7.50;99.90
49222;DHT22;35047;37.588;-122.048;2022-11-12T08:15:06;7.50;99.90
49222;DHT22;35047;37.588;-122.048;2022-11-12T08:17:37;7.50;99.90
49222;DHT22;35047;37.588;-122.048;2022-11-12T08:20:05;7.50;99.90
49222;DHT22;35047;37.588;-122.048;2022-11-12T08:22:32;7.50;99.90
49222;DHT22;35047;37.588;-122.048;2022-11-12T08:24:58;7.50;99.90
49222;DHT22;35047;37.588;-122.048;2022-11-12T08:27:26;7.40;99.90
49222;DHT22;35047;37.588;-122.048;2022-11-12T08:29:52;7.40;99.90
49222;DHT22;35047;37.588;-122.048;2022-11-12T08:32:19;7.40;99.90
49222;DHT22;35047;37.588;-122.048;2022-11-12T08:34:46;7.40;99.90
49222;DHT22;35047;37.588;-122.048;2022-11-12T08:37:12;7.40;99.90
49222;DHT22;35047;37.588;-122.048;2022-11-12T08:39:39;7.30;99.90
49222;DHT22;35047;37.588;-122.048;2022-11-12T08:42:06;7.30;99.90
49222;DHT22;35047;37.588;-122.048;2022-11-12T08:44:33;7.30;99.90
49222;DHT22;35047;37.588;-122.048;2022-11-12T08:47:00;7.30;99.90
49222;DHT22;35047;37.588;-122.048;2022-11-12T08:49:28;7.30;99.90
49222;DHT22;35047;37.588;-122.048;2022-11-12T08:51:55;7.30;99.90
49222;DHT22;35047;37.588;-122.048;2022-11-12T08:54:23;7.20;99.90
49222;DHT22;35047;37.588;-122.048;2022-11-12T08:56:50;7.30;99.90
49222;DHT22;35047;37.588;-122.048;2022-11-12T08:59:17;7.20;99.90
49222;DHT22;35047;37.588;-122.048;2022-11-12T09:01:45;7.20;99.90
49222;DHT22;35047;37.588;-122.048;2022-11-12T09:04:11;7.20;99.90
49222;DHT22;35047;37.588;-122.048;2022-11-12T09:06:37;7.20;99.90
49222;DHT22;35047;37.588;-122.048;2022-11-12T09:09:05;7.20;99.90
49222;DHT22;35047;37.588;-122.048;2022-11-12T09:11:31;7.20;99.90
49222;DHT22;35047;37.588;-122.048;2022-11-12T09:13:58;7.20;99.90
49222;DHT22;35047;37.588;-122.048;2022-11-12T09:16:25;7.20;99.90
49222;DHT22;35047;37.588;-122.048;2022-11-12T09:18:51;7.20;99.90
49222;DHT22;35047;37.588;-122.048;2022-11-12T09:21:17;7.20;99.90
49222;DHT22;35047;37.588;-122.048;2022-11-12T09:23:49;7.20;99.90
49222;DHT22;35047;37.588;-122.048;2022-11-12T09:26:16;7.20;99.90
49222;DHT22;35047;37.588;-122.048;2022-11-12T09:28:43;7.20;99.90
49222;DHT22;35047;37.588;-122.048;2022-11-12T09:31:09;7.20;99.90
49222;DHT22;35047;37.588;-122.048;2022-11-12T09:33:36;7.10;99.90
49222;DHT22;35047;37.588;-122.048;2022-11-12T09:36:05;7.10;99.90
49222;DHT22;35047;37.588;-122.048;2022-11-12T09:38:31;7.10;99.90
49222;DHT22;35047;37.588;-122.048;2022-11-12T09:41:15;7.10;99.90
49222;DHT22;35047;37.588;-122.048;2022-11-12T09:43:51;7.00;99.90
49222;DHT22;35047;37.588;-122.048;2022-11-12T09:46:51;7.10;99.90
49222;DHT22;35047;37.588;-122.048;2022-11-12T09:50:09;7.10;99.90
49222;DHT22;35047;37.588;-122.048;2022-11-12T09:52:24;7.10;99.90
49222;DHT22;35047;37.588;-122.048;2022-11-12T09:55:03;7.10;99.90
49222;DHT22;35047;37.588;-122.048;2022-11-12T09:57:31;7.10;99.90
49222;DHT22;35047;37.588;-122.048;2022-11-12T09:59:58;7.10;99.90
49222;DHT22;35047;37.588;-122.048;2022-11-12T10:02:39;7.00;99.90
49222;DHT22;35047;37.588;-122.048;2022-11-12T10:05:33;7.10;99.90
49222;DHT22;35047;37.588;-122.048;2022-11-12T10:10:43;7.10;99.90
49222;DHT22;35047;37.588;-122.048;2022-11-12T10:15:56;7.10;99.90
49222;DHT22;35047;37.588;-122.048;2022-11-12T10:24:26;7.20;99.90
49222;DHT22;35047;37.588;-122.048;2022-11-12T10:26:56;7.20;99.90
49222;DHT22;35047;37.588;-122.048;2022-11-12T10:31:59;7.20;99.90
49222;DHT22;35047;37.588;-122.048;2022-11-12T10:34:26;7.30;99.90
49222;DHT22;35047;37.588;-122.048;2022-11-12T10:37:26;7.20;99.90
49222;DHT22;35047;37.588;-122.048;2022-11-12T10:39:55;7.30;99.90
49222;DHT22;35047;37.588;-122.048;2022-11-12T10:42:22;7.30;99.90
49222;DHT22;35047;37.588;-122.048;2022-11-12T10:44:49;7.30;99.90
49222;DHT22;35047;37.588;-122.048;2022-11-12T10:47:36;7.30;99.90
49222;DHT22;35047;37.588;-122.048;2022-11-12T10:52:35;7.30;99.90
49222;DHT22;35047;37.588;-122.048;2022-11-12T10:55:16;7.30;99.90
49222;DHT22;35047;37.588;-122.048;2022-11-12T10:57:43;7.30;99.90
49222;DHT22;35047;37.588;-122.048;2022-11-12T11:00:14;7.30;99.90
49222;DHT22;35047;37.588;-122.048;2022-11-12T11:02:49;7.30;99.90
49222;DHT22;35047;37.588;-122.048;2022-11-12T11:05:37;7.30;99.90
49222;DHT22;35047;37.588;-122.048;2022-11-12T11:08:13;7.30;99.90
49222;DHT22;35047;37.588;-122.048;2022-11-12T11:10:40;7.40;99.90
49222;DHT22;35047;37.588;-122.048;2022-11-12T11:13:20;7.40;99.90
49222;DHT22;35047;37.588;-122.048;2022-11-12T11:16:09;7.30;99.90
49222;DHT22;35047;37.588;-122.048;2022-11-12T11:18:38;7.30;99.90
49222;DHT22;35047;37.588;-122.048;2022-11-12T11:27:27;7.40;99.90
49222;DHT22;35047;37.588;-122.048;2022-11-12T11:30:17;7.40;99.90
49222;DHT22;35047;37.588;-122.048;2022-11-12T11:47:02;7.60;99.90
49222;DHT22;35047;37.588;-122.048;2022-11-12T11:49:46;7.60;99.90
49222;DHT22;35047;37.588;-122.048;2022-11-12T11:58:11;7.70;99.90
49222;DHT22;35047;37.588;-122.048;2022-11-12T12:04:12;7.80;99.90
49222;DHT22;35047;37.588;-122.048;2022-11-12T12:07:06;7.80;99.90
49222;DHT22;35047;37.588;-122.048;2022-11-12T12:09:37;7.90;99.90
49222;DHT22;35047;37.588;-122.048;2022-11-12T12:12:17;7.90;99.90
49222;DHT22;35047;37.588;-122.048;2022-11-12T12:20:26;8.00;99.90
49222;DHT22;35047;37.588;-122.048;2022-11-12T12:23:22;8.10;99.90
49222;DHT22;35047;37.588;-122.048;2022-11-12T12:25:53;8.10;99.90
49222;DHT22;35047;37.588;-122.048;2022-11-12T12:28:41;8.10;99.90
49222;DHT22;35047;37.588;-122.048;2022-11-12T12:31:22;8.10;99.90
49222;DHT22;35047;37.588;-122.048;2022-11-12T12:33:52;8.20;99.90
49222;DHT22;35047;37.588;-122.048;2022-11-12T12:36:25;8.20;99.90
49222;DHT22;35047;37.588;-122.048;2022-11-12T12:44:12;8.40;99.90
49222;DHT22;35047;37.588;-122.048;2022-11-12T12:46:50;8.40;99.90
49222;DHT22;35047;37.588;-122.048;2022-11-12T12:49:29;8.40;99.90
49222;DHT22;35047;37.588;-122.048;2022-11-12T12:51:58;8.40;99.90
49222;DHT22;35047;37.588;-122.048;2022-11-12T12:57:03;8.50;99.90
49222;DHT22;35047;37.588;-122.048;2022-11-12T12:59:31;8.50;99.90
49222;DHT22;35047;37.588;-122.048;2022-11-12T13:02:02;8.50;99.90
49222;DHT22;35047;37.588;-122.048;2022-11-12T13:04:49;8.50;99.90
49222;DHT22;35047;37.588;-122.048;2022-11-12T13:07:18;8.60;99.90
49222;DHT22;35047;37.588;-122.048;2022-11-12T13:09:46;8.60;99.90
49222;DHT22;35047;37.588;-122.048;2022-11-12T13:12:16;8.60;99.90
49222;DHT22;35047;37.588;-122.048;2022-11-12T13:14:43;8.60;99.90
49222;DHT22;35047;37.588;-122.048;2022-11-12T13:17:11;8.60;99.90
49222;DHT22;35047;37.588;-122.048;2022-11-12T13:20:14;8.70;99.90
49222;DHT22;35047;37.588;-122.048;2022-11-12T13:35:31;8.70;99.90
49222;DHT22;35047;37.588;-122.048;2022-11-12T13:43:43;8.80;99.90
49222;DHT22;35047;37.588;-122.048;2022-11-12T13:46:28;8.90;99.90
49222;DHT22;35047;37.588;-122.048;2022-11-12T13:49:03;8.90;99.90
49222;DHT22;35047;37.588;-122.048;2022-11-12T13:51:43;8.90;99.90
49222;DHT22;35047;37.588;-122.048;2022-11-12T13:54:33;8.90;99.90
49222;DHT22;35047;37.588;-122.048;2022-11-12T14:02:44;8.90;99.90
49222;DHT22;35047;37.588;-122.048;2022-11-12T14:05:17;8.90;99.90
49222;DHT22;35047;37.588;-122.048;2022-11-12T14:16:18;9.00;99.90
49222;DHT22;35047;37.588;-122.048;2022-11-12T14:19:15;9.00;99.90
49222;DHT22;35047;37.588;-122.048;2022-11-12T14:21:58;9.00;99.90
49222;DHT22;35047;37.588;-122.048;2022-11-12T14:24:24;9.00;99.90
49222;DHT22;35047;37.588;-122.048;2022-11-12T14:26:51;9.10;99.90
49222;DHT22;35047;37.588;-122.048;2022-11-12T14:29:18;9.10;99.90
49222;DHT22;35047;37.588;-122.048;2022-11-12T14:31:45;9.10;99.90
49222;DHT22;35047;37.588;-122.048;2022-11-12T14:34:39;9.10;99.90
49222;DHT22;35047;37.588;-122.048;2022-11-12T14:37:19;9.10;99.90
49222;DHT22;35047;37.588;-122.048;2022-11-12T14:39:49;9.10;99.90
49222;DHT22;35047;37.588;-122.048;2022-11-12T14:42:16;9.10;99.90
49222;DHT22;35047;37.588;-122.048;2022-11-12T14:44:43;9.10;99.90
49222;DHT22;35047;37.588;-122.048;2022-11-12T14:47:09;9.10;99.90
49222;DHT22;35047;37.588;-122.048;2022-11-12T14:49:41;9.10;99.90
49222;DHT22;35047;37.588;-122.048;2022-11-12T14:52:26;9.10;99.90
49222;DHT22;35047;37.588;-122.048;2022-11-12T14:55:10;9.10;99.90
49222;DHT22;35047;37.588;-122.048;2022-11-12T14:57:38;9.10;99.90
49222;DHT22;35047;37.588;-122.048;2022-11-12T15:00:35;9.10;99.90
49222;DHT22;35047;37.588;-122.048;2022-11-12T15:03:03;9.00;99.90
49222;DHT22;35047;37.588;-122.048;2022-11-12T15:05:30;9.00;99.90
49222;DHT22;35047;37.588;-122.048;2022-11-12T15:08:03;9.00;99.90
49222;DHT22;35047;37.588;-122.048;2022-11-12T15:10:41;9.00;99.90
49222;DHT22;35047;37.588;-122.048;2022-11-12T15:13:18;9.00;99.90
49222;DHT22;35047;37.588;-122.048;2022-11-12T15:16:05;9.00;99.90
49222;DHT22;35047;37.588;-122.048;2022-11-12T15:18:35;9.00;99.90
49222;DHT22;35047;37.588;-122.048;2022-11-12T15:23:33;9.00;99.90
49222;DHT22;35047;37.588;-122.048;2022-11-12T15:26:01;9.00;99.90
49222;DHT22;35047;37.588;-122.048;2022-11-12T15:28:27;9.10;99.90
49222;DHT22;35047;37.588;-122.048;2022-11-12T15:31:05;9.10;99.90
49222;DHT22;35047;37.588;-122.048;2022-11-12T15:33:33;9.10;99.90
49222;DHT22;35047;37.588;-122.048;2022-11-12T15:36:00;9.10;99.90
49222;DHT22;35047;37.588;-122.048;2022-11-12T15:38:28;9.10;99.90
49222;DHT22;35047;37.588;-122.048;2022-11-12T15:40:57;9.10;99.90
49222;DHT22;35047;37.588;-122.048;2022-11-12T15:43:33;9.10;99.90
49222;DHT22;35047;37.588;-122.048;2022-11-12T15:46:00;9.10;99.90
49222;DHT22;35047;37.588;-122.048;2022-11-12T15:48:28;9.10;99.90
49222;DHT22;35047;37.588;-122.048;2022-11-12T15:50:54;9.10;99.90
49222;DHT22;35047;37.588;-122.048;2022-11-12T15:53:21;9.10;99.90
49222;DHT22;35047;37.588;-122.048;2022-11-12T15:55:49;9.20;99.90
49222;DHT22;35047;37.588;-122.048;2022-11-12T15:58:28;9.20;99.90
49222;DHT22;35047;37.588;-122.048;2022-11-12T16:00:57;9.20;99.90
49222;DHT22;35047;37.588;-122.048;2022-11-12T16:03:24;9.20;99.90
49222;DHT22;35047;37.588;-122.048;2022-11-12T16:05:51;9.20;99.90
49222;DHT22;35047;37.588;-122.048;2022-11-12T16:08:19;9.30;99.90
49222;DHT22;35047;37.588;-122.048;2022-11-12T16:10:46;9.40;99.90
49222;DHT22;35047;37.588;-122.048;2022-11-12T16:13:25;9.40;99.90
49222;DHT22;35047;37.588;-122.048;2022-11-12T16:15:52;9.40;99.90
49222;DHT22;35047;37.588;-122.048;2022-11-12T16:18:19;9.40;99.90
49222;DHT22;35047;37.588;-122.048;2022-11-12T16:20:47;9.40;99.90
49222;DHT22;35047;37.588;-122.048;2022-11-12T16:23:14;9.50;99.90
49222;DHT22;35047;37.588;-122.048;2022-11-12T16:25:42;9.60;99.90
49222;DHT22;35047;37.588;-122.048;2022-11-12T16:28:15;9.70;99.90
49222;DHT22;35047;37.588;-122.048;2022-11-12T16:30:42;9.90;99.90
49222;DHT22;35047;37.588;-122.048;2022-11-12T16:33:11;10.00;99.90
49222;DHT22;35047;37.588;-122.048;2022-11-12T16:35:38;10.30;99.90
49222;DHT22;35047;37.588;-122.048;2022-11-12T16:38:13;10.60;99.90
49222;DHT22;35047;37.588;-122.048;2022-11-12T16:40:41;10.90;99.90
49222;DHT22;35047;37.588;-122.048;2022-11-12T16:43:09;11.20;99.90
49222;DHT22;35047;37.588;-122.048;2022-11-12T16:45:42;11.50;99.90
49222;DHT22;35047;37.588;-122.048;2022-11-12T16:48:17;11.70;99.90
49222;DHT22;35047;37.588;-122.048;2022-11-12T16:50:44;11.80;99.90
49222;DHT22;35047;37.588;-122.048;2022-11-12T16:53:11;11.90;99.90
49222;DHT22;35047;37.588;-122.048;2022-11-12T16:55:38;11.90;99.90
49222;DHT22;35047;37.588;-122.048;2022-11-12T16:58:04;11.90;99.90
49222;DHT22;35047;37.588;-122.048;2022-11-12T17:00:31;11.90;99.90
49222;DHT22;35047;37.588;-122.048;2022-11-12T17:02:58;11.90;99.90
49222;DHT22;35047;37.588;-122.048;2022-11-12T17:05:25;11.90;99.90
49222;DHT22;35047;37.588;-122.048;2022-11-12T17:07:56;12.10;99.90